sensor_id;sensor_type;location;lat;lon;timestamp;pressure;altitude;pressure_sealevel;temperature;humidity
12360;BME280;6244;51.460;7.090;2023-04-25T00:02:26;100028.00;;;6.09;75.26
12360;BME280;6244;51.460;7.090;2023-04-25T00:07:24;100035.16;;;6.04;75.74
12360;BME280;6244;51.460;7.090;2023-04-25T00:12:21;100029.88;;;6.05;76.02
12360;BME280;6244;51.460;7.090;2023-04-25T00:17:19;100021.16;;;6.06;75.68
12360;BME280;6244;51.460;7.090;2023-04-25T00:22:17;100026.50;;;6.03;75.63
12360;BME280;6244;51.460;7.090;2023-04-25T00:27:13;100018.44;;;6.09;75.52
12360;BME280;6244;51.460;7.090;2023-04-25T00:32:10;100028.78;;;6.11;76.14
12360;BME280;6244;51.460;7.090;2023-04-25T00:37:08;100032.22;;;6.11;76.32
12360;BME280;6244;51.460;7.090;2023-04-25T00:42:05;100034.31;;;6.24;76.17
12360;BME280;6244;51.460;7.090;2023-04-25T00:47:02;100027.13;;;6.29;75.85
12360;BME280;6244;51.460;7.090;2023-04-25T00:51:59;100024.28;;;6.14;76.07
12360;BME280;6244;51.460;7.090;2023-04-25T00:56:57;100025.06;;;6.16;76.70
12360;BME280;6244;51.460;7.090;2023-04-25T01:01:53;100035.47;;;6.16;76.74
12360;BME280;6244;51.460;7.090;2023-04-25T01:06:51;100032.63;;;6.23;77.01
12360;BME280;6244;51.460;7.090;2023-04-25T01:11:48;100028.97;;;6.27;75.98
12360;BME280;6244;51.460;7.090;2023-04-25T01:16:46;100039.78;;;6.17;76.58
12360;BME280;6244;51.460;7.090;2023-04-25T01:21:44;100024.75;;;6.24;76.65
12360;BME280;6244;51.460;7.090;2023-04-25T01:26:42;100027.41;;;6.23;76.30
12360;BME280;6244;51.460;7.090;2023-04-25T01:31:45;100030.72;;;6.06;76.72
12360;BME280;6244;51.460;7.090;2023-04-25T01:36:42;100040.75;;;5.95;77.70
12360;BME280;6244;51.460;7.090;2023-04-25T01:41:40;100047.78;;;5.93;77.86
12360;BME280;6244;51.460;7.090;2023-04-25T01:46:36;100047.09;;;5.87;78.32
12360;BME280;6244;51.460;7.090;2023-04-25T01:51:33;100050.63;;;6.07;78.22
12360;BME280;6244;51.460;7.090;2023-04-25T01:56:30;100051.06;;;5.98;77.94
12360;BME280;6244;51.460;7.090;2023-04-25T02:01:28;100056.44;;;5.93;78.65
12360;BME280;6244;51.460;7.090;2023-04-25T02:06:25;100060.41;;;6.02;77.96
12360;BME280;6244;51.460;7.090;2023-04-25T02:11:21;100061.63;;;5.93;78.45
12360;BME280;6244;51.460;7.090;2023-04-25T02:16:18;100066.78;;;5.95;78.60
12360;BME280;6244;51.460;7.090;2023-04-25T02:21:16;100067.09;;;5.87;78.85
12360;BME280;6244;51.460;7.090;2023-04-25T02:26:12;100074.78;;;5.90;79.49
12360;BME280;6244;51.460;7.090;2023-04-25T02:31:09;100074.81;;;5.88;79.10
12360;BME280;6244;51.460;7.090;2023-04-25T02:36:06;100067.75;;;5.92;79.72
12360;BME280;6244;51.460;7.090;2023-04-25T02:41:04;100081.00;;;6.28;78.44
12360;BME280;6244;51.460;7.090;2023-04-25T02:46:01;100083.94;;;6.41;77.94
12360;BME280;6244;51.460;7.090;2023-04-25T02:50:57;100084.16;;;6.75;77.58
12360;BME280;6244;51.460;7.090;2023-04-25T02:55:54;100081.53;;;6.75;76.08
12360;BME280;6244;51.460;7.090;2023-04-25T03:00:54;100078.50;;;6.66;76.05
12360;BME280;6244;51.460;7.090;2023-04-25T03:05:51;100080.00;;;6.71;76.34
12360;BME280;6244;51.460;7.090;2023-04-25T03:10:47;100094.53;;;6.57;76.52
12360;BME280;6244;51.460;7.090;2023-04-25T03:15:45;100090.16;;;6.57;77.30
12360;BME280;6244;51.460;7.090;2023-04-25T03:20:43;100087.25;;;6.44;76.85
12360;BME280;6244;51.460;7.090;2023-04-25T03:25:40;100089.53;;;6.32;77.77
12360;BME280;6244;51.460;7.090;2023-04-25T03:30:36;100085.56;;;6.43;77.60
12360;BME280;6244;51.460;7.090;2023-04-25T03:35:33;100093.66;;;6.58;76.99
12360;BME280;6244;51.460;7.090;2023-04-25T03:40:31;100100.53;;;6.59;76.88
12360;BME280;6244;51.460;7.090;2023-04-25T03:45:28;100104.31;;;6.52;77.59
12360;BME280;6244;51.460;7.090;2023-04-25T03:50:24;100104.00;;;6.39;76.88
12360;BME280;6244;51.460;7.090;2023-04-25T03:55:21;100112.72;;;6.38;76.92
12360;BME280;6244;51.460;7.090;2023-04-25T04:00:19;100112.91;;;6.74;77.03
12360;BME280;6244;51.460;7.090;2023-04-25T04:05:15;100109.31;;;6.56;76.71
12360;BME280;6244;51.460;7.090;2023-04-25T04:10:12;100112.97;;;6.52;77.53
12360;BME280;6244;51.460;7.090;2023-04-25T04:15:09;100123.34;;;6.74;77.26
12360;BME280;6244;51.460;7.090;2023-04-25T04:20:08;100120.97;;;6.68;77.38
12360;BME280;6244;51.460;7.090;2023-04-25T04:25:05;100134.53;;;6.76;75.51
12360;BME280;6244;51.460;7.090;2023-04-25T04:30:02;100140.06;;;6.68;73.06
12360;BME280;6244;51.460;7.090;2023-04-25T04:34:59;100141.22;;;6.82;72.26
12360;BME280;6244;51.460;7.090;2023-04-25T04:39:57;100143.44;;;6.91;71.44
12360;BME280;6244;51.460;7.090;2023-04-25T04:44:53;100140.91;;;6.89;70.89
12360;BME280;6244;51.460;7.090;2023-04-25T04:49:50;100145.69;;;6.80;71.49
12360;BME280;6244;51.460;7.090;2023-04-25T04:54:47;100156.09;;;6.80;71.28
12360;BME280;6244;51.460;7.090;2023-04-25T04:59:46;100161.44;;;6.97;71.96
12360;BME280;6244;51.460;7.090;2023-04-25T05:04:42;100166.44;;;6.62;73.21
12360;BME280;6244;51.460;7.090;2023-04-25T05:09:39;100173.09;;;6.27;76.32
12360;BME280;6244;51.460;7.090;2023-04-25T05:14:36;100172.69;;;6.16;77.55
12360;BME280;6244;51.460;7.090;2023-04-25T05:19:34;100178.63;;;6.62;77.18
12360;BME280;6244;51.460;7.090;2023-04-25T05:24:30;100192.38;;;6.86;76.26
12360;BME280;6244;51.460;7.090;2023-04-25T05:29:27;100197.91;;;6.98;74.68
12360;BME280;6244;51.460;7.090;2023-04-25T05:34:23;100199.50;;;6.40;76.43
12360;BME280;6244;51.460;7.090;2023-04-25T05:39:21;100201.28;;;6.80;76.11
12360;BME280;6244;51.460;7.090;2023-04-25T05:44:17;100211.59;;;6.63;75.71
12360;BME280;6244;51.460;7.090;2023-04-25T05:49:14;100218.38;;;6.87;75.56
12360;BME280;6244;51.460;7.090;2023-04-25T05:54:10;100227.47;;;7.18;74.72
12360;BME280;6244;51.460;7.090;2023-04-25T05:59:08;100224.00;;;7.17;73.63
12360;BME280;6244;51.460;7.090;2023-04-25T06:04:05;100227.69;;;6.93;73.26
12360;BME280;6244;51.460;7.090;2023-04-25T06:09:01;100240.66;;;7.15;73.85
12360;BME280;6244;51.460;7.090;2023-04-25T06:13:58;100240.78;;;6.91;72.68
12360;BME280;6244;51.460;7.090;2023-04-25T06:18:56;100241.25;;;7.01;73.24
12360;BME280;6244;51.460;7.090;2023-04-25T06:23:52;100246.50;;;7.40;72.67
12360;BME280;6244;51.460;7.090;2023-04-25T06:28:49;100253.22;;;7.46;72.29
12360;BME280;6244;51.460;7.090;2023-04-25T06:33:45;100256.97;;;7.20;71.53
12360;BME280;6244;51.460;7.090;2023-04-25T06:38:44;100250.56;;;7.27;71.25
12360;BME280;6244;51.460;7.090;2023-04-25T06:43:41;100253.16;;;7.47;70.45
12360;BME280;6244;51.460;7.090;2023-04-25T06:48:37;100256.59;;;7.66;69.40
12360;BME280;6244;51.460;7.090;2023-04-25T06:53:34;100268.34;;;7.77;68.76
12360;BME280;6244;51.460;7.090;2023-04-25T06:58:32;100276.78;;;7.44;68.61
12360;BME280;6244;51.460;7.090;2023-04-25T07:03:28;100287.81;;;7.10;68.89
12360;BME280;6244;51.460;7.090;2023-04-25T07:08:25;100282.03;;;6.83;70.82
12360;BME280;6244;51.460;7.090;2023-04-25T07:13:21;100281.03;;;7.06;67.16
12360;BME280;6244;51.460;7.090;2023-04-25T07:18:19;100286.94;;;7.30;66.22
12360;BME280;6244;51.460;7.090;2023-04-25T07:23:16;100289.75;;;7.46;67.58
12360;BME280;6244;51.460;7.090;2023-04-25T07:28:12;100293.72;;;7.54;66.44
12360;BME280;6244;51.460;7.090;2023-04-25T07:33:09;100296.69;;;7.65;66.03
12360;BME280;6244;51.460;7.090;2023-04-25T07:38:07;100301.22;;;7.81;65.94
12360;BME280;6244;51.460;7.090;2023-04-25T07:43:05;100301.94;;;8.22;65.64
12360;BME280;6244;51.460;7.090;2023-04-25T07:48:02;100309.16;;;8.36;65.19
12360;BME280;6244;51.460;7.090;2023-04-25T07:52:58;100319.97;;;8.47;62.58
12360;BME280;6244;51.460;7.090;2023-04-25T07:57:56;100320.16;;;8.78;61.15
12360;BME280;6244;51.460;7.090;2023-04-25T08:02:53;100320.88;;;9.17;59.88
12360;BME280;6244;51.460;7.090;2023-04-25T08:07:49;100331.69;;;9.61;57.91
12360;BME280;6244;51.460;7.090;2023-04-25T08:12:46;100338.47;;;10.14;57.76
12360;BME280;6244;51.460;7.090;2023-04-25T08:17:43;100348.94;;;10.47;54.21
12360;BME280;6244;51.460;7.090;2023-04-25T08:22:40;100356.59;;;10.66;54.48
12360;BME280;6244;51.460;7.090;2023-04-25T08:27:37;100357.38;;;11.43;49.97
12360;BME280;6244;51.460;7.090;2023-04-25T08:32:33;100358.72;;;11.21;50.50
12360;BME280;6244;51.460;7.090;2023-04-25T08:37:31;100370.50;;;10.68;51.20
12360;BME280;6244;51.460;7.090;2023-04-25T08:42:28;100374.81;;;10.04;54.08
12360;BME280;6244;51.460;7.090;2023-04-25T08:47:27;100378.44;;;9.86;54.90
12360;BME280;6244;51.460;7.090;2023-04-25T08:52:28;100385.59;;;9.82;55.42
12360;BME280;6244;51.460;7.090;2023-04-25T08:57:28;100390.41;;;10.56;53.97
12360;BME280;6244;51.460;7.090;2023-04-25T09:02:26;100394.63;;;12.78;48.38
12360;BME280;6244;51.460;7.090;2023-04-25T09:07:22;100398.56;;;12.44;44.50
12360;BME280;6244;51.460;7.090;2023-04-25T09:12:21;100398.19;;;12.36;46.65
12360;BME280;6244;51.460;7.090;2023-04-25T09:17:19;100409.91;;;12.45;45.88
12360;BME280;6244;51.460;7.090;2023-04-25T09:22:17;100400.00;;;12.07;44.44
12360;BME280;6244;51.460;7.090;2023-04-25T09:27:18;100422.59;;;11.21;48.23
12360;BME280;6244;51.460;7.090;2023-04-25T09:32:20;100427.41;;;10.67;49.59
12360;BME280;6244;51.460;7.090;2023-04-25T09:37:19;100435.31;;;11.13;48.26
12360;BME280;6244;51.460;7.090;2023-04-25T09:42:17;100436.25;;;11.72;44.95
12360;BME280;6244;51.460;7.090;2023-04-25T09:47:14;100431.09;;;10.95;44.52
12360;BME280;6244;51.460;7.090;2023-04-25T09:52:15;100441.84;;;10.90;47.82
12360;BME280;6244;51.460;7.090;2023-04-25T09:57:14;100446.44;;;10.55;48.44
12360;BME280;6244;51.460;7.090;2023-04-25T10:02:12;100449.00;;;10.06;48.02
12360;BME280;6244;51.460;7.090;2023-04-25T10:07:09;100447.25;;;11.03;44.90
12360;BME280;6244;51.460;7.090;2023-04-25T10:12:07;100454.13;;;10.89;43.65
12360;BME280;6244;51.460;7.090;2023-04-25T10:17:04;100455.41;;;12.47;42.51
12360;BME280;6244;51.460;7.090;2023-04-25T10:22:06;100453.88;;;11.10;42.09
12360;BME280;6244;51.460;7.090;2023-04-25T10:27:04;100466.03;;;11.27;43.91
12360;BME280;6244;51.460;7.090;2023-04-25T10:32:02;100463.34;;;10.65;44.85
12360;BME280;6244;51.460;7.090;2023-04-25T10:36:59;100463.25;;;10.00;43.23
12360;BME280;6244;51.460;7.090;2023-04-25T10:41:59;100466.63;;;9.69;43.97
12360;BME280;6244;51.460;7.090;2023-04-25T10:46:59;100476.53;;;9.46;47.43
12360;BME280;6244;51.460;7.090;2023-04-25T10:57:30;100488.47;;;9.15;47.71
12360;BME280;6244;51.460;7.090;2023-04-25T11:02:27;100510.56;;;8.91;52.86
12360;BME280;6244;51.460;7.090;2023-04-25T11:07:31;100527.06;;;8.74;57.87
12360;BME280;6244;51.460;7.090;2023-04-25T11:12:31;100520.00;;;8.76;58.27
12360;BME280;6244;51.460;7.090;2023-04-25T11:17:28;100523.75;;;8.70;59.51
12360;BME280;6244;51.460;7.090;2023-04-25T11:22:26;100523.97;;;8.85;59.50
12360;BME280;6244;51.460;7.090;2023-04-25T11:27:23;100526.34;;;8.89;58.08
12360;BME280;6244;51.460;7.090;2023-04-25T11:32:22;100520.72;;;9.34;57.65
12360;BME280;6244;51.460;7.090;2023-04-25T11:37:19;100514.88;;;9.83;56.26
12360;BME280;6244;51.460;7.090;2023-04-25T11:42:16;100515.03;;;10.96;50.75
12360;BME280;6244;51.460;7.090;2023-04-25T11:47:12;100506.69;;;12.97;45.35
12360;BME280;6244;51.460;7.090;2023-04-25T11:52:10;100499.75;;;14.91;40.97
12360;BME280;6244;51.460;7.090;2023-04-25T11:57:07;100503.66;;;16.05;36.48
12360;BME280;6244;51.460;7.090;2023-04-25T12:02:03;100495.13;;;16.24;35.81
12360;BME280;6244;51.460;7.090;2023-04-25T12:07:02;100503.63;;;14.98;37.38
12360;BME280;6244;51.460;7.090;2023-04-25T12:12:00;100501.56;;;13.08;39.60
12360;BME280;6244;51.460;7.090;2023-04-25T12:16:59;100511.75;;;12.14;41.53
12360;BME280;6244;51.460;7.090;2023-04-25T12:21:56;100516.63;;;11.30;44.06
12360;BME280;6244;51.460;7.090;2023-04-25T12:26:55;100515.88;;;10.81;46.25
12360;BME280;6244;51.460;7.090;2023-04-25T12:31:56;100520.34;;;10.79;47.77
12360;BME280;6244;51.460;7.090;2023-04-25T12:36:52;100520.78;;;11.03;44.32
12360;BME280;6244;51.460;7.090;2023-04-25T12:41:49;100514.00;;;10.67;44.07
12360;BME280;6244;51.460;7.090;2023-04-25T12:46:47;100522.25;;;10.59;44.88
12360;BME280;6244;51.460;7.090;2023-04-25T12:51:45;100519.06;;;10.37;45.65
12360;BME280;6244;51.460;7.090;2023-04-25T12:56:42;100537.81;;;9.60;45.88
12360;BME280;6244;51.460;7.090;2023-04-25T13:01:38;100539.75;;;9.38;49.25
12360;BME280;6244;51.460;7.090;2023-04-25T13:06:35;100540.94;;;9.67;53.33
12360;BME280;6244;51.460;7.090;2023-04-25T13:11:32;100548.44;;;9.57;53.17
12360;BME280;6244;51.460;7.090;2023-04-25T13:16:29;100556.88;;;9.81;56.43
12360;BME280;6244;51.460;7.090;2023-04-25T13:21:25;100561.41;;;10.12;55.03
12360;BME280;6244;51.460;7.090;2023-04-25T13:26:22;100568.28;;;10.15;52.78
12360;BME280;6244;51.460;7.090;2023-04-25T13:31:20;100573.47;;;9.63;52.73
12360;BME280;6244;51.460;7.090;2023-04-25T13:36:16;100567.78;;;9.36;53.34
12360;BME280;6244;51.460;7.090;2023-04-25T13:41:13;100565.75;;;9.43;53.51
12360;BME280;6244;51.460;7.090;2023-04-25T13:46:14;100564.25;;;9.73;54.00
12360;BME280;6244;51.460;7.090;2023-04-25T13:51:13;100566.53;;;10.33;53.20
12360;BME280;6244;51.460;7.090;2023-04-25T13:56:10;100553.88;;;10.74;52.37
12360;BME280;6244;51.460;7.090;2023-04-25T14:01:07;100559.94;;;11.23;49.45
12360;BME280;6244;51.460;7.090;2023-04-25T14:06:04;100550.19;;;11.25;46.37
12360;BME280;6244;51.460;7.090;2023-04-25T14:11:02;100547.38;;;11.28;43.12
12360;BME280;6244;51.460;7.090;2023-04-25T14:15:58;100539.84;;;11.22;43.52
12360;BME280;6244;51.460;7.090;2023-04-25T14:20:55;100543.16;;;11.10;45.09
12360;BME280;6244;51.460;7.090;2023-04-25T14:25:51;100538.28;;;11.81;44.54
12360;BME280;6244;51.460;7.090;2023-04-25T14:30:49;100542.25;;;11.72;41.83
12360;BME280;6244;51.460;7.090;2023-04-25T14:35:46;100527.69;;;11.97;42.04
12360;BME280;6244;51.460;7.090;2023-04-25T14:40:43;100529.44;;;11.82;40.57
12360;BME280;6244;51.460;7.090;2023-04-25T14:45:40;100538.91;;;11.39;40.92
12360;BME280;6244;51.460;7.090;2023-04-25T14:50:38;100538.91;;;10.92;40.78
12360;BME280;6244;51.460;7.090;2023-04-25T14:55:35;100539.63;;;10.78;42.03
12360;BME280;6244;51.460;7.090;2023-04-25T15:00:31;100553.63;;;10.45;45.06
12360;BME280;6244;51.460;7.090;2023-04-25T15:05:28;100558.19;;;10.07;48.16
12360;BME280;6244;51.460;7.090;2023-04-25T15:10:26;100567.69;;;9.92;50.24
12360;BME280;6244;51.460;7.090;2023-04-25T15:15:22;100570.09;;;10.32;50.86
12360;BME280;6244;51.460;7.090;2023-04-25T15:20:19;100571.03;;;10.64;48.13
12360;BME280;6244;51.460;7.090;2023-04-25T15:25:16;100577.69;;;10.86;44.84
12360;BME280;6244;51.460;7.090;2023-04-25T15:30:15;100568.19;;;10.84;43.64
12360;BME280;6244;51.460;7.090;2023-04-25T15:35:13;100573.69;;;10.79;46.07
12360;BME280;6244;51.460;7.090;2023-04-25T15:40:11;100560.69;;;10.61;44.92
12360;BME280;6244;51.460;7.090;2023-04-25T15:45:09;100567.38;;;10.66;43.05
12360;BME280;6244;51.460;7.090;2023-04-25T15:50:08;100572.56;;;10.68;43.96
12360;BME280;6244;51.460;7.090;2023-04-25T15:55:06;100560.69;;;10.61;41.50
12360;BME280;6244;51.460;7.090;2023-04-25T16:00:04;100571.38;;;10.40;43.14
12360;BME280;6244;51.460;7.090;2023-04-25T16:05:05;100556.25;;;10.45;43.81
12360;BME280;6244;51.460;7.090;2023-04-25T16:10:04;100572.53;;;10.35;43.49
12360;BME280;6244;51.460;7.090;2023-04-25T16:15:01;100578.91;;;10.12;43.96
12360;BME280;6244;51.460;7.090;2023-04-25T16:19:57;100590.56;;;10.06;45.62
12360;BME280;6244;51.460;7.090;2023-04-25T16:24:56;100598.03;;;9.96;45.48
12360;BME280;6244;51.460;7.090;2023-04-25T16:29:53;100594.25;;;9.85;46.42
12360;BME280;6244;51.460;7.090;2023-04-25T16:34:50;100600.50;;;9.82;45.41
12360;BME280;6244;51.460;7.090;2023-04-25T16:39:46;100597.34;;;9.93;45.44
12360;BME280;6244;51.460;7.090;2023-04-25T16:44:43;100599.91;;;10.12;43.62
12360;BME280;6244;51.460;7.090;2023-04-25T16:49:41;100606.44;;;9.86;45.48
12360;BME280;6244;51.460;7.090;2023-04-25T16:54:37;100621.41;;;9.65;47.51
12360;BME280;6244;51.460;7.090;2023-04-25T16:59:34;100610.66;;;9.52;48.70
12360;BME280;6244;51.460;7.090;2023-04-25T17:04:30;100612.66;;;9.28;49.00
12360;BME280;6244;51.460;7.090;2023-04-25T17:09:28;100623.06;;;9.30;47.73
12360;BME280;6244;51.460;7.090;2023-04-25T17:14:25;100621.34;;;9.29;47.82
12360;BME280;6244;51.460;7.090;2023-04-25T17:19:22;100638.41;;;9.37;49.83
12360;BME280;6244;51.460;7.090;2023-04-25T17:24:18;100629.63;;;9.38;48.56
12360;BME280;6244;51.460;7.090;2023-04-25T17:29:17;100629.22;;;9.48;46.71
12360;BME280;6244;51.460;7.090;2023-04-25T17:34:15;100640.97;;;9.39;46.86
12360;BME280;6244;51.460;7.090;2023-04-25T17:39:12;100629.72;;;9.37;47.08
12360;BME280;6244;51.460;7.090;2023-04-25T17:44:12;100636.59;;;9.21;48.79
12360;BME280;6244;51.460;7.090;2023-04-25T17:49:10;100645.41;;;8.99;49.57
12360;BME280;6244;51.460;7.090;2023-04-25T17:54:07;100665.56;;;8.77;48.96
12360;BME280;6244;51.460;7.090;2023-04-25T17:59:04;100670.47;;;8.64;50.74
12360;BME280;6244;51.460;7.090;2023-04-25T18:04:01;100670.09;;;8.73;49.69
12360;BME280;6244;51.460;7.090;2023-04-25T18:09:00;100673.34;;;8.78;50.87
12360;BME280;6244;51.460;7.090;2023-04-25T18:13:57;100683.25;;;8.72;51.02
12360;BME280;6244;51.460;7.090;2023-04-25T18:18:53;100691.63;;;8.60;49.39
12360;BME280;6244;51.460;7.090;2023-04-25T18:24:00;100708.00;;;8.43;49.88
12360;BME280;6244;51.460;7.090;2023-04-25T18:28:57;100709.44;;;8.28;49.75
12360;BME280;6244;51.460;7.090;2023-04-25T18:33:53;100707.81;;;8.25;51.57
12360;BME280;6244;51.460;7.090;2023-04-25T18:38:50;100725.09;;;8.08;50.75
12360;BME280;6244;51.460;7.090;2023-04-25T18:43:50;100726.47;;;8.16;50.59
12360;BME280;6244;51.460;7.090;2023-04-25T18:48:47;100720.72;;;8.08;51.41
12360;BME280;6244;51.460;7.090;2023-04-25T18:53:44;100739.09;;;8.05;52.91
12360;BME280;6244;51.460;7.090;2023-04-25T18:58:41;100742.97;;;7.97;52.55
12360;BME280;6244;51.460;7.090;2023-04-25T19:03:39;100748.00;;;8.01;52.73
12360;BME280;6244;51.460;7.090;2023-04-25T19:08:36;100758.69;;;7.95;53.02
12360;BME280;6244;51.460;7.090;2023-04-25T19:13:32;100766.69;;;7.90;53.92
12360;BME280;6244;51.460;7.090;2023-04-25T19:18:29;100770.53;;;7.82;53.41
12360;BME280;6244;51.460;7.090;2023-04-25T19:23:27;100779.03;;;7.63;53.76
12360;BME280;6244;51.460;7.090;2023-04-25T19:28:25;100775.28;;;7.71;54.07
12360;BME280;6244;51.460;7.090;2023-04-25T19:33:23;100780.59;;;7.68;54.16
12360;BME280;6244;51.460;7.090;2023-04-25T19:38:20;100776.75;;;7.54;53.66
12360;BME280;6244;51.460;7.090;2023-04-25T19:43:18;100783.91;;;7.49;53.33
12360;BME280;6244;51.460;7.090;2023-04-25T19:48:14;100789.47;;;7.40;54.78
12360;BME280;6244;51.460;7.090;2023-04-25T19:53:11;100792.78;;;7.45;53.85
12360;BME280;6244;51.460;7.090;2023-04-25T19:58:07;100790.25;;;7.42;54.71
12360;BME280;6244;51.460;7.090;2023-04-25T20:03:05;100807.19;;;7.30;54.39
12360;BME280;6244;51.460;7.090;2023-04-25T20:08:02;100803.13;;;7.23;55.11
12360;BME280;6244;51.460;7.090;2023-04-25T20:12:58;100808.34;;;7.23;54.59
12360;BME280;6244;51.460;7.090;2023-04-25T20:17:55;100803.38;;;7.16;54.75
12360;BME280;6244;51.460;7.090;2023-04-25T20:22:53;100804.28;;;7.15;54.81
12360;BME280;6244;51.460;7.090;2023-04-25T20:27:50;100811.47;;;7.33;54.20
12360;BME280;6244;51.460;7.090;2023-04-25T20:32:46;100814.03;;;7.34;54.98
12360;BME280;6244;51.460;7.090;2023-04-25T20:37:44;100815.69;;;7.37;54.54
12360;BME280;6244;51.460;7.090;2023-04-25T20:42:42;100809.91;;;7.27;54.53
12360;BME280;6244;51.460;7.090;2023-04-25T20:47:40;100808.59;;;7.16;54.75
12360;BME280;6244;51.460;7.090;2023-04-25T20:52:38;100818.97;;;7.17;55.24
12360;BME280;6244;51.460;7.090;2023-04-25T20:57:35;100815.31;;;7.23;55.22
12360;BME280;6244;51.460;7.090;2023-04-25T21:02:33;100819.13;;;7.13;55.46
12360;BME280;6244;51.460;7.090;2023-04-25T21:07:30;100820.03;;;7.12;55.68
12360;BME280;6244;51.460;7.090;2023-04-25T21:12:26;100822.59;;;7.13;55.61
12360;BME280;6244;51.460;7.090;2023-04-25T21:17:23;100820.00;;;7.13;56.15
12360;BME280;6244;51.460;7.090;2023-04-25T21:22:21;100820.72;;;7.17;55.96
12360;BME280;6244;51.460;7.090;2023-04-25T21:27:17;100825.44;;;7.05;56.62
12360;BME280;6244;51.460;7.090;2023-04-25T21:32:14;100832.47;;;7.03;56.61
12360;BME280;6244;51.460;7.090;2023-04-25T21:37:14;100838.50;;;6.79;57.51
12360;BME280;6244;51.460;7.090;2023-04-25T21:42:13;100837.41;;;6.86;57.96
12360;BME280;6244;51.460;7.090;2023-04-25T21:47:09;100833.69;;;6.93;57.08
12360;BME280;6244;51.460;7.090;2023-04-25T21:52:06;100840.94;;;6.85;57.17
12360;BME280;6244;51.460;7.090;2023-04-25T21:57:06;100837.81;;;6.74;57.34
12360;BME280;6244;51.460;7.090;2023-04-25T22:02:04;100844.28;;;6.62;57.43
12360;BME280;6244;51.460;7.090;2023-04-25T22:07:02;100837.53;;;6.55;58.02
12360;BME280;6244;51.460;7.090;2023-04-25T22:11:58;100852.72;;;6.42;59.06
12360;BME280;6244;51.460;7.090;2023-04-25T22:16:56;100857.09;;;6.68;58.75
12360;BME280;6244;51.460;7.090;2023-04-25T22:21:54;100859.13;;;6.60;58.61
12360;BME280;6244;51.460;7.090;2023-04-25T22:26:51;100849.53;;;6.61;59.28
12360;BME280;6244;51.460;7.090;2023-04-25T22:31:48;100869.34;;;6.93;59.48
12360;BME280;6244;51.460;7.090;2023-04-25T22:36:45;100854.66;;;6.64;59.96
12360;BME280;6244;51.460;7.090;2023-04-25T22:41:42;100874.50;;;6.68;59.93
12360;BME280;6244;51.460;7.090;2023-04-25T22:46:39;100883.78;;;5.89;60.86
12360;BME280;6244;51.460;7.090;2023-04-25T22:51:36;100891.38;;;5.66;63.05
12360;BME280;6244;51.460;7.090;2023-04-25T22:56:33;100899.41;;;5.57;63.19
12360;BME280;6244;51.460;7.090;2023-04-25T23:01:31;100898.88;;;5.44;62.97
12360;BME280;6244;51.460;7.090;2023-04-25T23:06:28;100907.09;;;5.94;62.42
12360;BME280;6244;51.460;7.090;2023-04-25T23:11:25;100904.16;;;6.08;61.35
12360;BME280;6244;51.460;7.090;2023-04-25T23:16:22;100886.56;;;6.14;61.23
12360;BME280;6244;51.460;7.090;2023-04-25T23:21:20;100898.53;;;6.20;61.04
12360;BME280;6244;51.460;7.090;2023-04-25T23:26:17;100897.47;;;6.27;60.88
12360;BME280;6244;51.460;7.090;2023-04-25T23:31:15;100898.28;;;6.29;60.78
12360;BME280;6244;51.460;7.090;2023-04-25T23:36:15;100901.94;;;6.24;60.38
12360;BME280;6244;51.460;7.090;2023-04-25T23:41:15;100911.56;;;6.20;60.55
12360;BME280;6244;51.460;7.090;2023-04-25T23:46:12;100907.94;;;6.26;60.84
12360;BME280;6244;51.460;7.090;2023-04-25T23:51:08;100904.28;;;6.33;60.36
12360;BME280;6244;51.460;7.090;2023-04-25T23:56:05;100910.34;;;6.33;60.70
